Boone County Airport Harrison US
ICAO: KHRO
IATA: HRO
Category: Medium
Scheduled Services: Yes

Elevation: 1365 ft
TransAlt. 18000 ft.

Airport Communications:
ASOS:121.125
MEMPHIS CNTR:126.85
JONESBORO RDO:122.45
CTAF/UNICOM:123

KHRO Zoom In..

If you have problems with the map follow the link
https://www.worldairports.se/pages/airport.php?
ICAO=KHRO

Runways:

(A) RW 18 length 6161 ft width 150 ft
---- / hdg 182

(B) RW 36 length 6161 ft width 150 ft
ILS 111.70 / hdg 2

Location; KHRO
Day. 16 / Time. 11.53 Zulu
* Altimeter: 30.11
* Temperature: 07° c. 44.6°f.
* Wind from: 280° Speed 05 kn.
Dewpoint: 00° c.
Visibility: 10 Statute Miles.
Clouds: Clear (automated report).

KHRO 161153Z AUTO 28005KT 10SM CLR 07/00 A3011 RMK AO2 SLP197 T00720000 10111 20072 53016


Wind From 280°
Speed 05 kn.

 
 
jpsmedia.com for Web Design worldairports.se 2018   terms of use